Погода Рацевона неделю

Витебская область, Белоруссия

26 мая-01 июня
  • 26мая
    Сегодня
    +12°
    +26°
    Небольшая облачность
    ВремяПогодаТемператураВлажностьДавлениеВетер, м/сВероятность осадков
    00:00Ясно и безоблачно+15°C67 %757 мм2.1 м/с2 %
    03:00Ясно и безоблачно+12°C76 %757 мм2.7 м/с2 %
    06:00Ясно и безоблачно+12°C79 %757 мм0.8 м/с2 %
    09:00Облачно с прояснениями+19°C59 %757 мм1.2 м/с2 %
    12:00Небольшая облачность+23°C41 %757 мм0.6 м/с2 %
    15:00Небольшая облачность+25°C36 %757 мм0.6 м/с2 %
    18:00Ясно и безоблачно+25°C37 %756 мм1.6 м/с2 %
    21:00Ясно и безоблачно+18°C67 %756 мм2.3 м/с2 %
  • 27мая
    Понедельник
    +13°
    +26°
    Практически безоблачно
    ВремяПогодаТемператураВлажностьДавлениеВетер, м/сВероятность осадков
    00:00Ясно и безоблачно+17°C61 %756 мм0.5 м/с2 %
    03:00Ясно и безоблачно+13°C83 %756 мм1.9 м/с2 %
    06:00Ясно и безоблачно+14°C76 %756 мм2.1 м/с2 %
    09:00Ясно и безоблачно+21°C61 %757 мм1.5 м/с2 %
    12:00Практически безоблачно+25°C41 %756 мм2.2 м/с2 %
    15:00Практически безоблачно+26°C42 %756 мм1.5 м/с2 %
    18:00Практически безоблачно+25°C46 %755 мм0.5 м/с13 %
    21:00Ясно и безоблачно+19°C73 %755 мм1.9 м/с5 %
  • 28мая
    Вторник
    +13°
    +26°
    Пасмурно, сплошная облачность
    ВремяПогодаТемператураВлажностьДавлениеВетер, м/сВероятность осадков
    00:00Ясно и безоблачно+16°C82 %755 мм2.0 м/с2 %
    03:00Практически безоблачно+15°C90 %755 мм2.2 м/с2 %
    06:00Ясно и безоблачно+15°C87 %754 мм2.1 м/с2 %
    09:00Ясно и безоблачно+21°C67 %755 мм1.8 м/с2 %
    12:00Ясно и безоблачно+25°C51 %754 мм2.7 м/с10 %
    15:00Пасмурно, сплошная облачность+25°C45 %753 мм1.9 м/с22 %
    18:00Практически безоблачно+24°C48 %752 мм1.5 м/с43 %
    21:00Ясно и безоблачно+19°C73 %752 мм4.1 м/с16 %
  • 29мая
    Среда
    +14°
    +26°
    Практически безоблачно
    ВремяПогодаТемператураВлажностьДавлениеВетер, м/сВероятность осадков
    00:00Ясно и безоблачно+16°C85 %751 мм2.4 м/с2 %
    03:00Практически безоблачно+15°C87 %751 мм2.2 м/с2 %
    06:00Облачно с прояснениями+15°C80 %750 мм2.1 м/с2 %
    09:00Облачно с прояснениями+22°C62 %750 мм1.5 м/с2 %
    12:00Практически безоблачно+25°C40 %750 мм1.6 м/с10 %
    15:00Практически безоблачно+25°C34 %749 мм2.6 м/с19 %
    18:00Ясно и безоблачно+25°C38 %748 мм2.2 м/с10 %
    21:00Ясно и безоблачно+20°C56 %748 мм2.3 м/с2 %
  • 30мая
    Четверг
    +13°
    +26°
    Облачно с прояснениями
    ВремяПогодаТемператураВлажностьДавлениеВетер, м/сВероятность осадков
    00:00Практически безоблачно+17°C65 %748 мм2.5 м/с2 %
    03:00Облачно с прояснениями+15°C73 %747 мм2.6 м/с2 %
    06:00Облачно с прояснениями+15°C72 %747 мм3.3 м/с2 %
    09:00Облачно с прояснениями+20°C62 %747 мм2.4 м/с2 %
    12:00Облачно с прояснениями+25°C36 %746 мм4.8 м/с13 %
    15:00Облачно с прояснениями+25°C36 %746 мм3.5 м/с29 %
    18:00Ясно и безоблачно+25°C36 %746 мм3.9 м/с35 %
    21:00Ясно и безоблачно+20°C60 %746 мм2.4 м/с7 %
Мы используем cookies
Соглашаюсь